La Scie, Canada
Current Conditions -  °F | °C
As of 11:00 PM on Monday 20 Oct 2014 (Local Time) from CYQX Reporting Station
Few Clouds Few Clouds  
Wind Chill: 33°   Ceiling: Unl
Heat Index: 43°   Visibility: 20mi
Dew Point: 34°   Wind: 26mph
Humidity: 70%   Direction: 230°SW
Pressure: 29.55"   Gusts: 40mph
Location:  49.97°N, 55.58°W
Report Text: CYQX 210100Z 23023G35KT 20SM FEW027 06/01 A2955 RMK SC1 SLP010
Loading
Personal Weather Stations






























Interactive Weather Map
Tropical Storm Tracking
New forecast layout! Learn more

10-Day Weather Forecast

Advertisements
Track Severe Weather on mobile